sensor_id;sensor_type;location;lat;lon;timestamp;P1;durP1;ratioP1;P2;durP2;ratioP2
35847;SDS011;22332;51.954;20.118;2023-09-19T00:02:32;14.30;;;11.60;;
35847;SDS011;22332;51.954;20.118;2023-09-19T00:05:39;14.00;;;11.20;;
35847;SDS011;22332;51.954;20.118;2023-09-19T00:08:47;12.90;;;10.60;;
35847;SDS011;22332;51.954;20.118;2023-09-19T00:11:52;10.50;;;9.40;;
35847;SDS011;22332;51.954;20.118;2023-09-19T00:14:58;12.20;;;9.70;;
35847;SDS011;22332;51.954;20.118;2023-09-19T00:18:04;11.80;;;10.40;;
35847;SDS011;22332;51.954;20.118;2023-09-19T00:21:10;13.50;;;11.60;;
35847;SDS011;22332;51.954;20.118;2023-09-19T00:24:15;13.50;;;11.60;;
35847;SDS011;22332;51.954;20.118;2023-09-19T00:27:21;15.50;;;11.10;;
35847;SDS011;22332;51.954;20.118;2023-09-19T00:30:26;16.00;;;10.90;;
35847;SDS011;22332;51.954;20.118;2023-09-19T00:33:32;15.30;;;10.90;;
35847;SDS011;22332;51.954;20.118;2023-09-19T00:36:37;12.70;;;11.20;;
35847;SDS011;22332;51.954;20.118;2023-09-19T00:39:43;14.50;;;11.00;;
35847;SDS011;22332;51.954;20.118;2023-09-19T00:42:49;12.60;;;11.30;;
35847;SDS011;22332;51.954;20.118;2023-09-19T00:45:56;12.90;;;11.50;;
35847;SDS011;22332;51.954;20.118;2023-09-19T00:49:03;13.60;;;11.00;;
35847;SDS011;22332;51.954;20.118;2023-09-19T00:52:12;14.00;;;10.60;;
35847;SDS011;22332;51.954;20.118;2023-09-19T00:55:18;14.20;;;11.50;;
35847;SDS011;22332;51.954;20.118;2023-09-19T00:58:23;13.10;;;11.10;;
35847;SDS011;22332;51.954;20.118;2023-09-19T01:01:35;15.80;;;12.30;;
35847;SDS011;22332;51.954;20.118;2023-09-19T01:04:42;15.10;;;12.30;;
35847;SDS011;22332;51.954;20.118;2023-09-19T01:07:48;14.70;;;11.70;;
35847;SDS011;22332;51.954;20.118;2023-09-19T01:10:58;17.90;;;11.60;;
35847;SDS011;22332;51.954;20.118;2023-09-19T01:14:13;14.40;;;11.50;;
35847;SDS011;22332;51.954;20.118;2023-09-19T01:17:25;13.60;;;11.40;;
35847;SDS011;22332;51.954;20.118;2023-09-19T01:20:36;14.70;;;12.00;;
35847;SDS011;22332;51.954;20.118;2023-09-19T01:23:53;13.60;;;11.80;;
35847;SDS011;22332;51.954;20.118;2023-09-19T01:27:23;14.90;;;11.50;;
35847;SDS011;22332;51.954;20.118;2023-09-19T01:30:46;11.70;;;10.00;;
35847;SDS011;22332;51.954;20.118;2023-09-19T01:33:58;13.40;;;11.20;;
35847;SDS011;22332;51.954;20.118;2023-09-19T01:37:07;16.10;;;12.30;;
35847;SDS011;22332;51.954;20.118;2023-09-19T01:40:13;13.70;;;12.20;;
35847;SDS011;22332;51.954;20.118;2023-09-19T01:43:24;14.40;;;12.30;;
35847;SDS011;22332;51.954;20.118;2023-09-19T01:46:36;15.50;;;12.60;;
35847;SDS011;22332;51.954;20.118;2023-09-19T01:49:48;14.50;;;11.80;;
35847;SDS011;22332;51.954;20.118;2023-09-19T01:53:10;13.60;;;10.60;;
35847;SDS011;22332;51.954;20.118;2023-09-19T01:56:25;14.20;;;11.40;;
35847;SDS011;22332;51.954;20.118;2023-09-19T01:59:39;14.70;;;11.70;;
35847;SDS011;22332;51.954;20.118;2023-09-19T02:02:49;15.80;;;12.30;;
35847;SDS011;22332;51.954;20.118;2023-09-19T02:05:58;14.10;;;12.10;;
35847;SDS011;22332;51.954;20.118;2023-09-19T02:09:06;14.10;;;12.60;;
35847;SDS011;22332;51.954;20.118;2023-09-19T02:12:12;14.90;;;11.30;;
35847;SDS011;22332;51.954;20.118;2023-09-19T02:15:19;11.60;;;9.90;;
35847;SDS011;22332;51.954;20.118;2023-09-19T02:18:25;12.40;;;11.00;;
35847;SDS011;22332;51.954;20.118;2023-09-19T02:21:31;14.80;;;12.10;;
35847;SDS011;22332;51.954;20.118;2023-09-19T02:24:37;13.40;;;12.00;;
35847;SDS011;22332;51.954;20.118;2023-09-19T02:27:43;13.60;;;12.20;;
35847;SDS011;22332;51.954;20.118;2023-09-19T02:30:50;14.00;;;12.50;;
35847;SDS011;22332;51.954;20.118;2023-09-19T02:33:56;13.40;;;11.00;;
35847;SDS011;22332;51.954;20.118;2023-09-19T02:37:03;14.80;;;10.80;;
35847;SDS011;22332;51.954;20.118;2023-09-19T02:40:09;13.60;;;12.00;;
35847;SDS011;22332;51.954;20.118;2023-09-19T02:43:22;13.80;;;12.40;;
35847;SDS011;22332;51.954;20.118;2023-09-19T02:46:28;14.40;;;11.70;;
35847;SDS011;22332;51.954;20.118;2023-09-19T02:49:34;14.40;;;12.50;;
35847;SDS011;22332;51.954;20.118;2023-09-19T02:52:42;14.90;;;12.30;;
35847;SDS011;22332;51.954;20.118;2023-09-19T02:55:50;12.90;;;11.10;;
35847;SDS011;22332;51.954;20.118;2023-09-19T02:58:56;12.20;;;9.90;;
35847;SDS011;22332;51.954;20.118;2023-09-19T03:02:03;12.70;;;11.10;;
35847;SDS011;22332;51.954;20.118;2023-09-19T03:05:09;14.80;;;11.90;;
35847;SDS011;22332;51.954;20.118;2023-09-19T03:08:15;13.10;;;11.70;;
35847;SDS011;22332;51.954;20.118;2023-09-19T03:11:23;14.10;;;12.30;;
35847;SDS011;22332;51.954;20.118;2023-09-19T03:14:32;15.00;;;12.80;;
35847;SDS011;22332;51.954;20.118;2023-09-19T03:17:38;14.00;;;11.30;;
35847;SDS011;22332;51.954;20.118;2023-09-19T03:20:53;11.70;;;10.50;;
35847;SDS011;22332;51.954;20.118;2023-09-19T03:23:59;14.10;;;11.40;;
35847;SDS011;22332;51.954;20.118;2023-09-19T03:27:06;12.90;;;11.50;;
35847;SDS011;22332;51.954;20.118;2023-09-19T03:30:16;13.40;;;11.00;;
35847;SDS011;22332;51.954;20.118;2023-09-19T03:33:23;13.60;;;12.20;;
35847;SDS011;22332;51.954;20.118;2023-09-19T03:36:29;14.50;;;12.70;;
35847;SDS011;22332;51.954;20.118;2023-09-19T03:39:35;13.70;;;11.70;;
35847;SDS011;22332;51.954;20.118;2023-09-19T03:42:44;14.50;;;10.90;;
35847;SDS011;22332;51.954;20.118;2023-09-19T03:45:51;14.80;;;11.00;;
35847;SDS011;22332;51.954;20.118;2023-09-19T03:48:58;14.50;;;11.60;;
35847;SDS011;22332;51.954;20.118;2023-09-19T03:52:05;13.30;;;11.60;;
35847;SDS011;22332;51.954;20.118;2023-09-19T03:55:10;13.80;;;12.30;;
35847;SDS011;22332;51.954;20.118;2023-09-19T03:58:17;14.30;;;12.00;;
35847;SDS011;22332;51.954;20.118;2023-09-19T04:01:23;13.70;;;10.50;;
35847;SDS011;22332;51.954;20.118;2023-09-19T04:04:30;14.70;;;11.80;;
35847;SDS011;22332;51.954;20.118;2023-09-19T04:07:36;13.90;;;11.50;;
35847;SDS011;22332;51.954;20.118;2023-09-19T04:10:43;14.70;;;12.40;;
35847;SDS011;22332;51.954;20.118;2023-09-19T04:13:48;14.30;;;12.30;;
35847;SDS011;22332;51.954;20.118;2023-09-19T04:16:54;14.70;;;12.50;;
35847;SDS011;22332;51.954;20.118;2023-09-19T04:19:59;13.70;;;11.50;;
35847;SDS011;22332;51.954;20.118;2023-09-19T04:23:07;11.80;;;10.40;;
35847;SDS011;22332;51.954;20.118;2023-09-19T04:26:13;12.10;;;10.90;;
35847;SDS011;22332;51.954;20.118;2023-09-19T04:29:20;13.80;;;11.80;;
35847;SDS011;22332;51.954;20.118;2023-09-19T04:32:26;15.00;;;11.90;;
35847;SDS011;22332;51.954;20.118;2023-09-19T04:35:35;14.70;;;12.70;;
35847;SDS011;22332;51.954;20.118;2023-09-19T04:38:41;15.00;;;11.60;;
35847;SDS011;22332;51.954;20.118;2023-09-19T04:41:47;11.30;;;10.20;;
35847;SDS011;22332;51.954;20.118;2023-09-19T04:44:53;13.30;;;11.40;;
35847;SDS011;22332;51.954;20.118;2023-09-19T04:47:58;13.40;;;11.40;;
35847;SDS011;22332;51.954;20.118;2023-09-19T04:51:05;14.50;;;11.50;;
35847;SDS011;22332;51.954;20.118;2023-09-19T04:54:11;14.00;;;11.50;;
35847;SDS011;22332;51.954;20.118;2023-09-19T04:57:17;13.00;;;10.80;;
35847;SDS011;22332;51.954;20.118;2023-09-19T05:00:23;15.20;;;10.40;;
35847;SDS011;22332;51.954;20.118;2023-09-19T05:03:33;15.00;;;10.60;;
35847;SDS011;22332;51.954;20.118;2023-09-19T05:06:39;13.50;;;10.90;;
35847;SDS011;22332;51.954;20.118;2023-09-19T05:09:44;12.40;;;11.10;;
35847;SDS011;22332;51.954;20.118;2023-09-19T05:12:52;15.60;;;11.30;;
35847;SDS011;22332;51.954;20.118;2023-09-19T05:16:00;13.60;;;11.00;;
35847;SDS011;22332;51.954;20.118;2023-09-19T05:19:06;12.90;;;10.00;;
35847;SDS011;22332;51.954;20.118;2023-09-19T05:22:14;12.20;;;10.90;;
35847;SDS011;22332;51.954;20.118;2023-09-19T05:25:21;13.30;;;10.80;;
35847;SDS011;22332;51.954;20.118;2023-09-19T05:28:27;15.40;;;12.10;;
35847;SDS011;22332;51.954;20.118;2023-09-19T05:31:35;13.00;;;11.60;;
35847;SDS011;22332;51.954;20.118;2023-09-19T05:34:43;16.90;;;11.50;;
35847;SDS011;22332;51.954;20.118;2023-09-19T05:37:51;12.70;;;10.60;;
35847;SDS011;22332;51.954;20.118;2023-09-19T05:40:58;12.50;;;10.90;;
35847;SDS011;22332;51.954;20.118;2023-09-19T05:44:06;13.50;;;11.70;;
35847;SDS011;22332;51.954;20.118;2023-09-19T05:47:12;14.90;;;11.90;;
35847;SDS011;22332;51.954;20.118;2023-09-19T05:50:17;13.80;;;12.00;;
35847;SDS011;22332;51.954;20.118;2023-09-19T05:53:23;14.90;;;11.70;;
35847;SDS011;22332;51.954;20.118;2023-09-19T05:56:29;13.30;;;11.50;;
35847;SDS011;22332;51.954;20.118;2023-09-19T05:59:37;13.10;;;11.30;;
35847;SDS011;22332;51.954;20.118;2023-09-19T06:02:51;13.70;;;11.70;;
35847;SDS011;22332;51.954;20.118;2023-09-19T06:09:02;14.20;;;12.10;;
35847;SDS011;22332;51.954;20.118;2023-09-19T06:12:09;13.90;;;12.00;;
35847;SDS011;22332;51.954;20.118;2023-09-19T06:15:18;13.60;;;11.50;;
35847;SDS011;22332;51.954;20.118;2023-09-19T06:18:27;13.50;;;10.80;;
35847;SDS011;22332;51.954;20.118;2023-09-19T06:21:36;15.80;;;11.60;;
35847;SDS011;22332;51.954;20.118;2023-09-19T06:24:42;13.00;;;11.60;;
35847;SDS011;22332;51.954;20.118;2023-09-19T06:27:50;13.50;;;11.90;;
35847;SDS011;22332;51.954;20.118;2023-09-19T06:30:57;14.60;;;13.10;;
35847;SDS011;22332;51.954;20.118;2023-09-19T06:34:03;15.80;;;12.70;;
35847;SDS011;22332;51.954;20.118;2023-09-19T06:37:10;13.50;;;12.10;;
35847;SDS011;22332;51.954;20.118;2023-09-19T06:40:15;14.80;;;13.20;;
35847;SDS011;22332;51.954;20.118;2023-09-19T06:43:22;13.60;;;10.80;;
35847;SDS011;22332;51.954;20.118;2023-09-19T06:46:27;13.60;;;12.00;;
35847;SDS011;22332;51.954;20.118;2023-09-19T06:49:35;14.10;;;11.10;;
35847;SDS011;22332;51.954;20.118;2023-09-19T06:52:41;13.40;;;11.60;;
35847;SDS011;22332;51.954;20.118;2023-09-19T06:55:47;14.50;;;11.40;;
35847;SDS011;22332;51.954;20.118;2023-09-19T06:58:53;14.90;;;11.80;;
35847;SDS011;22332;51.954;20.118;2023-09-19T07:01:59;12.90;;;10.80;;
35847;SDS011;22332;51.954;20.118;2023-09-19T07:05:09;13.70;;;10.70;;
35847;SDS011;22332;51.954;20.118;2023-09-19T07:08:15;14.50;;;10.30;;
35847;SDS011;22332;51.954;20.118;2023-09-19T07:11:24;12.70;;;10.50;;
35847;SDS011;22332;51.954;20.118;2023-09-19T07:14:30;11.60;;;9.90;;
35847;SDS011;22332;51.954;20.118;2023-09-19T07:17:35;11.30;;;9.60;;
35847;SDS011;22332;51.954;20.118;2023-09-19T07:20:41;13.20;;;9.50;;
35847;SDS011;22332;51.954;20.118;2023-09-19T07:23:52;11.40;;;9.10;;
35847;SDS011;22332;51.954;20.118;2023-09-19T07:27:00;8.60;;;7.70;;
35847;SDS011;22332;51.954;20.118;2023-09-19T07:30:09;9.50;;;8.50;;
35847;SDS011;22332;51.954;20.118;2023-09-19T07:33:15;8.30;;;7.30;;
35847;SDS011;22332;51.954;20.118;2023-09-19T07:36:21;8.50;;;6.90;;
35847;SDS011;22332;51.954;20.118;2023-09-19T07:39:27;8.20;;;7.20;;
35847;SDS011;22332;51.954;20.118;2023-09-19T07:42:32;11.20;;;8.00;;
35847;SDS011;22332;51.954;20.118;2023-09-19T07:45:39;8.90;;;7.10;;
35847;SDS011;22332;51.954;20.118;2023-09-19T07:48:45;9.10;;;7.00;;
35847;SDS011;22332;51.954;20.118;2023-09-19T07:51:52;11.90;;;6.50;;
35847;SDS011;22332;51.954;20.118;2023-09-19T07:54:57;7.60;;;6.20;;
35847;SDS011;22332;51.954;20.118;2023-09-19T07:58:04;10.00;;;6.80;;
35847;SDS011;22332;51.954;20.118;2023-09-19T08:01:10;11.10;;;7.40;;
35847;SDS011;22332;51.954;20.118;2023-09-19T08:04:16;8.60;;;6.60;;
35847;SDS011;22332;51.954;20.118;2023-09-19T08:07:22;9.10;;;6.70;;
35847;SDS011;22332;51.954;20.118;2023-09-19T08:10:28;10.50;;;6.30;;
35847;SDS011;22332;51.954;20.118;2023-09-19T08:13:38;10.50;;;7.20;;
35847;SDS011;22332;51.954;20.118;2023-09-19T08:16:46;10.70;;;7.50;;
35847;SDS011;22332;51.954;20.118;2023-09-19T08:19:52;10.20;;;6.80;;
35847;SDS011;22332;51.954;20.118;2023-09-19T08:22:57;9.80;;;7.30;;
35847;SDS011;22332;51.954;20.118;2023-09-19T08:26:03;11.30;;;7.50;;
35847;SDS011;22332;51.954;20.118;2023-09-19T08:29:10;10.00;;;7.70;;
35847;SDS011;22332;51.954;20.118;2023-09-19T08:32:16;9.80;;;7.00;;
35847;SDS011;22332;51.954;20.118;2023-09-19T08:35:26;11.30;;;7.30;;
35847;SDS011;22332;51.954;20.118;2023-09-19T08:38:33;11.50;;;8.00;;
35847;SDS011;22332;51.954;20.118;2023-09-19T08:41:39;10.70;;;7.20;;
35847;SDS011;22332;51.954;20.118;2023-09-19T08:44:45;10.30;;;6.90;;
35847;SDS011;22332;51.954;20.118;2023-09-19T08:47:54;9.60;;;6.70;;
35847;SDS011;22332;51.954;20.118;2023-09-19T08:51:10;8.70;;;7.00;;
35847;SDS011;22332;51.954;20.118;2023-09-19T08:54:22;9.00;;;6.40;;
35847;SDS011;22332;51.954;20.118;2023-09-19T08:57:33;9.60;;;6.00;;
35847;SDS011;22332;51.954;20.118;2023-09-19T09:00:44;7.40;;;5.80;;
35847;SDS011;22332;51.954;20.118;2023-09-19T09:03:52;8.20;;;5.60;;
35847;SDS011;22332;51.954;20.118;2023-09-19T09:06:59;7.90;;;5.50;;
35847;SDS011;22332;51.954;20.118;2023-09-19T09:10:07;7.30;;;5.30;;
35847;SDS011;22332;51.954;20.118;2023-09-19T09:13:13;7.60;;;5.70;;
35847;SDS011;22332;51.954;20.118;2023-09-19T09:16:20;7.10;;;4.90;;
35847;SDS011;22332;51.954;20.118;2023-09-19T09:19:28;6.50;;;4.40;;
35847;SDS011;22332;51.954;20.118;2023-09-19T09:22:35;6.20;;;4.80;;
35847;SDS011;22332;51.954;20.118;2023-09-19T09:25:49;7.70;;;4.90;;
35847;SDS011;22332;51.954;20.118;2023-09-19T09:28:59;6.30;;;4.80;;
35847;SDS011;22332;51.954;20.118;2023-09-19T09:32:17;6.30;;;5.00;;
35847;SDS011;22332;51.954;20.118;2023-09-19T09:35:27;5.60;;;4.60;;
35847;SDS011;22332;51.954;20.118;2023-09-19T09:38:43;7.10;;;4.00;;
35847;SDS011;22332;51.954;20.118;2023-09-19T09:41:51;6.30;;;4.60;;
35847;SDS011;22332;51.954;20.118;2023-09-19T09:45:01;5.10;;;4.30;;
35847;SDS011;22332;51.954;20.118;2023-09-19T09:48:18;4.80;;;3.80;;
35847;SDS011;22332;51.954;20.118;2023-09-19T09:51:34;6.50;;;4.10;;
35847;SDS011;22332;51.954;20.118;2023-09-19T09:54:57;5.60;;;4.00;;
35847;SDS011;22332;51.954;20.118;2023-09-19T09:58:17;5.60;;;4.00;;
35847;SDS011;22332;51.954;20.118;2023-09-19T10:01:26;7.90;;;4.10;;
35847;SDS011;22332;51.954;20.118;2023-09-19T10:04:49;4.60;;;3.50;;
35847;SDS011;22332;51.954;20.118;2023-09-19T10:08:10;5.20;;;3.60;;
35847;SDS011;22332;51.954;20.118;2023-09-19T10:11:21;6.10;;;3.90;;
35847;SDS011;22332;51.954;20.118;2023-09-19T10:14:33;5.60;;;3.50;;
35847;SDS011;22332;51.954;20.118;2023-09-19T10:17:43;4.10;;;3.50;;
35847;SDS011;22332;51.954;20.118;2023-09-19T10:20:49;6.20;;;3.60;;
35847;SDS011;22332;51.954;20.118;2023-09-19T10:23:55;4.70;;;3.40;;
35847;SDS011;22332;51.954;20.118;2023-09-19T10:27:05;5.60;;;3.60;;
35847;SDS011;22332;51.954;20.118;2023-09-19T10:30:12;4.40;;;3.80;;
35847;SDS011;22332;51.954;20.118;2023-09-19T10:33:19;5.00;;;3.60;;
35847;SDS011;22332;51.954;20.118;2023-09-19T10:36:28;4.10;;;3.50;;
35847;SDS011;22332;51.954;20.118;2023-09-19T10:39:38;4.60;;;4.00;;
35847;SDS011;22332;51.954;20.118;2023-09-19T10:42:47;6.70;;;4.30;;
35847;SDS011;22332;51.954;20.118;2023-09-19T10:45:54;5.20;;;3.70;;
35847;SDS011;22332;51.954;20.118;2023-09-19T10:49:06;4.70;;;3.60;;
35847;SDS011;22332;51.954;20.118;2023-09-19T10:52:15;6.40;;;4.20;;
35847;SDS011;22332;51.954;20.118;2023-09-19T10:55:25;5.00;;;3.90;;
35847;SDS011;22332;51.954;20.118;2023-09-19T10:58:34;4.80;;;3.70;;
35847;SDS011;22332;51.954;20.118;2023-09-19T11:01:44;5.70;;;3.70;;
35847;SDS011;22332;51.954;20.118;2023-09-19T11:05:11;4.70;;;3.80;;
35847;SDS011;22332;51.954;20.118;2023-09-19T11:08:18;6.60;;;4.50;;
35847;SDS011;22332;51.954;20.118;2023-09-19T11:11:45;5.10;;;4.20;;
35847;SDS011;22332;51.954;20.118;2023-09-19T11:14:55;6.80;;;5.00;;
35847;SDS011;22332;51.954;20.118;2023-09-19T11:18:01;4.70;;;4.20;;
35847;SDS011;22332;51.954;20.118;2023-09-19T11:21:53;6.20;;;4.80;;
35847;SDS011;22332;51.954;20.118;2023-09-19T11:25:02;5.80;;;5.10;;
35847;SDS011;22332;51.954;20.118;2023-09-19T11:28:50;7.10;;;5.90;;
35847;SDS011;22332;51.954;20.118;2023-09-19T11:36:13;5.50;;;5.00;;
35847;SDS011;22332;51.954;20.118;2023-09-19T11:39:26;9.00;;;5.70;;
35847;SDS011;22332;51.954;20.118;2023-09-19T11:42:45;6.90;;;5.60;;
35847;SDS011;22332;51.954;20.118;2023-09-19T11:46:05;7.40;;;6.00;;
35847;SDS011;22332;51.954;20.118;2023-09-19T11:49:14;9.30;;;6.00;;
35847;SDS011;22332;51.954;20.118;2023-09-19T11:52:24;7.00;;;5.70;;
35847;SDS011;22332;51.954;20.118;2023-09-19T11:55:32;6.10;;;5.40;;
35847;SDS011;22332;51.954;20.118;2023-09-19T11:58:40;6.70;;;5.60;;
35847;SDS011;22332;51.954;20.118;2023-09-19T12:01:50;7.40;;;6.20;;
35847;SDS011;22332;51.954;20.118;2023-09-19T12:05:00;7.60;;;6.00;;
35847;SDS011;22332;51.954;20.118;2023-09-19T12:08:07;5.90;;;5.20;;
35847;SDS011;22332;51.954;20.118;2023-09-19T12:11:13;5.90;;;5.40;;
35847;SDS011;22332;51.954;20.118;2023-09-19T12:14:23;6.70;;;5.90;;
35847;SDS011;22332;51.954;20.118;2023-09-19T12:17:36;7.00;;;6.30;;
35847;SDS011;22332;51.954;20.118;2023-09-19T12:20:44;7.20;;;5.80;;
35847;SDS011;22332;51.954;20.118;2023-09-19T12:23:57;8.90;;;5.70;;
35847;SDS011;22332;51.954;20.118;2023-09-19T12:27:08;5.60;;;5.10;;
35847;SDS011;22332;51.954;20.118;2023-09-19T12:30:14;5.40;;;4.80;;
35847;SDS011;22332;51.954;20.118;2023-09-19T12:33:22;8.10;;;5.20;;
35847;SDS011;22332;51.954;20.118;2023-09-19T12:36:28;7.80;;;6.50;;
35847;SDS011;22332;51.954;20.118;2023-09-19T12:39:37;7.80;;;5.70;;
35847;SDS011;22332;51.954;20.118;2023-09-19T12:42:46;6.10;;;5.40;;
35847;SDS011;22332;51.954;20.118;2023-09-19T12:45:54;6.60;;;5.00;;
35847;SDS011;22332;51.954;20.118;2023-09-19T12:49:18;5.90;;;4.90;;
35847;SDS011;22332;51.954;20.118;2023-09-19T12:52:25;7.00;;;4.00;;
35847;SDS011;22332;51.954;20.118;2023-09-19T12:55:37;4.80;;;3.70;;
35847;SDS011;22332;51.954;20.118;2023-09-19T12:58:52;4.10;;;3.70;;
35847;SDS011;22332;51.954;20.118;2023-09-19T13:02:04;3.90;;;2.90;;
35847;SDS011;22332;51.954;20.118;2023-09-19T13:05:16;3.90;;;3.20;;
35847;SDS011;22332;51.954;20.118;2023-09-19T13:08:23;3.40;;;2.90;;
35847;SDS011;22332;51.954;20.118;2023-09-19T13:11:36;5.90;;;3.70;;
35847;SDS011;22332;51.954;20.118;2023-09-19T13:14:45;6.50;;;4.10;;
35847;SDS011;22332;51.954;20.118;2023-09-19T13:17:53;4.70;;;3.60;;
35847;SDS011;22332;51.954;20.118;2023-09-19T13:21:08;4.90;;;3.70;;
35847;SDS011;22332;51.954;20.118;2023-09-19T13:24:21;5.10;;;3.90;;
35847;SDS011;22332;51.954;20.118;2023-09-19T13:27:30;5.00;;;4.50;;
35847;SDS011;22332;51.954;20.118;2023-09-19T13:30:37;6.00;;;4.00;;
35847;SDS011;22332;51.954;20.118;2023-09-19T13:33:45;4.10;;;3.60;;
35847;SDS011;22332;51.954;20.118;2023-09-19T13:36:53;5.10;;;3.70;;
35847;SDS011;22332;51.954;20.118;2023-09-19T13:39:58;5.00;;;4.20;;
35847;SDS011;22332;51.954;20.118;2023-09-19T13:43:05;5.40;;;3.60;;
35847;SDS011;22332;51.954;20.118;2023-09-19T13:46:11;4.80;;;3.90;;
35847;SDS011;22332;51.954;20.118;2023-09-19T13:49:19;5.10;;;3.40;;
35847;SDS011;22332;51.954;20.118;2023-09-19T13:52:26;3.60;;;3.10;;
35847;SDS011;22332;51.954;20.118;2023-09-19T13:55:33;2.90;;;2.60;;
35847;SDS011;22332;51.954;20.118;2023-09-19T13:58:40;5.90;;;3.50;;
35847;SDS011;22332;51.954;20.118;2023-09-19T14:01:46;3.90;;;2.70;;
35847;SDS011;22332;51.954;20.118;2023-09-19T14:04:52;2.60;;;2.30;;
35847;SDS011;22332;51.954;20.118;2023-09-19T14:07:57;4.50;;;2.30;;
35847;SDS011;22332;51.954;20.118;2023-09-19T14:11:06;3.10;;;2.20;;
35847;SDS011;22332;51.954;20.118;2023-09-19T14:14:12;3.60;;;2.50;;
35847;SDS011;22332;51.954;20.118;2023-09-19T14:17:18;2.80;;;2.40;;
35847;SDS011;22332;51.954;20.118;2023-09-19T14:20:24;3.30;;;2.20;;
35847;SDS011;22332;51.954;20.118;2023-09-19T14:23:30;2.50;;;2.00;;
35847;SDS011;22332;51.954;20.118;2023-09-19T14:26:40;3.00;;;2.20;;
35847;SDS011;22332;51.954;20.118;2023-09-19T14:29:45;9.40;;;2.10;;
35847;SDS011;22332;51.954;20.118;2023-09-19T14:32:51;2.60;;;2.40;;
35847;SDS011;22332;51.954;20.118;2023-09-19T14:35:57;3.00;;;2.70;;
35847;SDS011;22332;51.954;20.118;2023-09-19T14:39:05;3.90;;;2.40;;
35847;SDS011;22332;51.954;20.118;2023-09-19T14:42:12;2.70;;;2.30;;
35847;SDS011;22332;51.954;20.118;2023-09-19T14:45:20;4.30;;;2.00;;
35847;SDS011;22332;51.954;20.118;2023-09-19T14:48:28;3.70;;;2.00;;
35847;SDS011;22332;51.954;20.118;2023-09-19T14:51:33;4.30;;;1.90;;
35847;SDS011;22332;51.954;20.118;2023-09-19T14:54:40;3.40;;;1.80;;
35847;SDS011;22332;51.954;20.118;2023-09-19T14:57:50;2.50;;;1.50;;
35847;SDS011;22332;51.954;20.118;2023-09-19T15:01:00;2.60;;;1.60;;
35847;SDS011;22332;51.954;20.118;2023-09-19T15:04:08;5.00;;;1.90;;
35847;SDS011;22332;51.954;20.118;2023-09-19T15:07:13;4.00;;;1.70;;
35847;SDS011;22332;51.954;20.118;2023-09-19T15:10:20;2.90;;;2.00;;
35847;SDS011;22332;51.954;20.118;2023-09-19T15:13:26;2.00;;;1.80;;
35847;SDS011;22332;51.954;20.118;2023-09-19T15:16:32;2.40;;;1.60;;
35847;SDS011;22332;51.954;20.118;2023-09-19T15:19:38;2.20;;;1.80;;
35847;SDS011;22332;51.954;20.118;2023-09-19T15:22:44;3.90;;;2.10;;
35847;SDS011;22332;51.954;20.118;2023-09-19T15:25:50;3.40;;;2.10;;
35847;SDS011;22332;51.954;20.118;2023-09-19T15:28:56;3.10;;;1.90;;
35847;SDS011;22332;51.954;20.118;2023-09-19T15:32:03;4.40;;;2.20;;
35847;SDS011;22332;51.954;20.118;2023-09-19T15:35:09;2.40;;;2.00;;
35847;SDS011;22332;51.954;20.118;2023-09-19T15:38:16;2.50;;;1.90;;
35847;SDS011;22332;51.954;20.118;2023-09-19T15:41:22;3.70;;;2.30;;
35847;SDS011;22332;51.954;20.118;2023-09-19T15:44:29;3.50;;;2.30;;
35847;SDS011;22332;51.954;20.118;2023-09-19T15:47:35;2.60;;;2.00;;
35847;SDS011;22332;51.954;20.118;2023-09-19T15:50:41;2.50;;;2.20;;
35847;SDS011;22332;51.954;20.118;2023-09-19T15:53:48;3.90;;;2.30;;
35847;SDS011;22332;51.954;20.118;2023-09-19T15:56:56;3.60;;;2.10;;
35847;SDS011;22332;51.954;20.118;2023-09-19T16:00:03;3.90;;;2.20;;
35847;SDS011;22332;51.954;20.118;2023-09-19T16:03:14;3.80;;;2.20;;
35847;SDS011;22332;51.954;20.118;2023-09-19T16:06:20;2.50;;;2.10;;
35847;SDS011;22332;51.954;20.118;2023-09-19T16:09:28;3.50;;;1.90;;
35847;SDS011;22332;51.954;20.118;2023-09-19T16:12:34;2.20;;;1.90;;
35847;SDS011;22332;51.954;20.118;2023-09-19T16:15:42;3.00;;;2.20;;
35847;SDS011;22332;51.954;20.118;2023-09-19T16:18:48;3.90;;;2.40;;
35847;SDS011;22332;51.954;20.118;2023-09-19T16:21:55;3.60;;;2.30;;
35847;SDS011;22332;51.954;20.118;2023-09-19T16:25:02;3.30;;;2.50;;
35847;SDS011;22332;51.954;20.118;2023-09-19T16:28:08;4.00;;;2.40;;
35847;SDS011;22332;51.954;20.118;2023-09-19T16:31:14;3.00;;;2.50;;
35847;SDS011;22332;51.954;20.118;2023-09-19T16:34:20;5.40;;;2.50;;
35847;SDS011;22332;51.954;20.118;2023-09-19T16:37:25;2.70;;;2.30;;
35847;SDS011;22332;51.954;20.118;2023-09-19T16:40:31;3.90;;;2.00;;
35847;SDS011;22332;51.954;20.118;2023-09-19T16:43:36;3.50;;;2.00;;
35847;SDS011;22332;51.954;20.118;2023-09-19T16:46:42;3.90;;;2.00;;
35847;SDS011;22332;51.954;20.118;2023-09-19T16:49:48;2.90;;;1.90;;
35847;SDS011;22332;51.954;20.118;2023-09-19T16:52:55;2.20;;;1.90;;
35847;SDS011;22332;51.954;20.118;2023-09-19T16:56:02;5.60;;;2.10;;
35847;SDS011;22332;51.954;20.118;2023-09-19T16:59:12;2.60;;;1.80;;
35847;SDS011;22332;51.954;20.118;2023-09-19T17:02:18;2.10;;;1.70;;
35847;SDS011;22332;51.954;20.118;2023-09-19T17:05:24;2.90;;;2.00;;
35847;SDS011;22332;51.954;20.118;2023-09-19T17:08:30;3.50;;;2.10;;
35847;SDS011;22332;51.954;20.118;2023-09-19T17:11:36;2.30;;;2.00;;
35847;SDS011;22332;51.954;20.118;2023-09-19T17:14:42;4.90;;;1.90;;
35847;SDS011;22332;51.954;20.118;2023-09-19T17:17:47;4.80;;;1.90;;
35847;SDS011;22332;51.954;20.118;2023-09-19T17:20:54;4.60;;;2.20;;
35847;SDS011;22332;51.954;20.118;2023-09-19T17:24:00;3.40;;;2.80;;
35847;SDS011;22332;51.954;20.118;2023-09-19T17:27:08;2.90;;;2.30;;
35847;SDS011;22332;51.954;20.118;2023-09-19T17:30:14;4.20;;;2.30;;
35847;SDS011;22332;51.954;20.118;2023-09-19T17:33:20;2.20;;;2.00;;
35847;SDS011;22332;51.954;20.118;2023-09-19T17:36:26;4.10;;;2.50;;
35847;SDS011;22332;51.954;20.118;2023-09-19T17:39:34;5.50;;;2.30;;
35847;SDS011;22332;51.954;20.118;2023-09-19T17:42:40;3.10;;;2.10;;
35847;SDS011;22332;51.954;20.118;2023-09-19T17:45:46;2.70;;;2.40;;
35847;SDS011;22332;51.954;20.118;2023-09-19T17:48:52;3.70;;;1.90;;
35847;SDS011;22332;51.954;20.118;2023-09-19T17:51:59;2.80;;;2.30;;
35847;SDS011;22332;51.954;20.118;2023-09-19T17:55:06;2.10;;;1.90;;
35847;SDS011;22332;51.954;20.118;2023-09-19T17:58:16;3.50;;;2.10;;
35847;SDS011;22332;51.954;20.118;2023-09-19T18:01:22;2.70;;;2.10;;
35847;SDS011;22332;51.954;20.118;2023-09-19T18:04:30;3.90;;;2.20;;
35847;SDS011;22332;51.954;20.118;2023-09-19T18:07:35;3.10;;;2.30;;
35847;SDS011;22332;51.954;20.118;2023-09-19T18:10:41;4.30;;;1.90;;
35847;SDS011;22332;51.954;20.118;2023-09-19T18:13:47;4.30;;;1.90;;
35847;SDS011;22332;51.954;20.118;2023-09-19T18:16:54;2.80;;;2.10;;
35847;SDS011;22332;51.954;20.118;2023-09-19T18:20:00;3.60;;;2.10;;
35847;SDS011;22332;51.954;20.118;2023-09-19T18:23:07;2.90;;;2.30;;
35847;SDS011;22332;51.954;20.118;2023-09-19T18:26:15;3.20;;;2.10;;
35847;SDS011;22332;51.954;20.118;2023-09-19T18:29:22;4.20;;;2.40;;
35847;SDS011;22332;51.954;20.118;2023-09-19T18:32:28;2.30;;;1.90;;